Pagina principale
METAR-TAF:

METAR-TAF

Aeroporti :

Payerne, Svizzera

latitudine: 46-49N, longitudine: 006-57E, altezza: 490 m

Osservazione

Il bollettino è stato emesso 34 minuti fa, alle 01:20 UTC
Vento 8 kt da sud/sud-ovest, variando fra sud e ovest/sud-ovest
Temperature 11°C
Umidità 66%
Pressione 1027 hPa
Visibilità 10 km o più
Nubi sparse ad un'altezza di 7400 ft

METAR: LSMP 240120Z AUTO 21008KT 170V240 9999NDV SCT074 11/05 Q1027 RMK

Ora: 02:54 (01:54 UTC)


TAF: mancante

Osservazioni e previsioni meteorologiche di più di 4000 aeroporti (messaggi METAR e TAF).

Le stazioni disponibili sono rappresentate dai dischi gialli e rossi sulla carta.

Puntare il mouse per vedere il nome della stazione.

Clicca sopra per visualizzare le osservazioni e previsioni meteorologiche.

Per cambiare la mappa : fare clic sui pulsanti verdi con una croce nera per ingrandire, il pulsante verde con un trattino per diminuire, o sulla freccia verde per le mappe adiacenti.


METAR-TAF: